createdAt,value
2017-06-04T06:51:06.105Z,34.2
2017-06-04T06:51:46.645Z,33.81
2017-06-04T06:52:27.188Z,33.62
2017-06-04T06:53:07.729Z,33.81
2017-06-04T06:53:48.277Z,33.72
2017-06-04T06:54:28.812Z,34.2
2017-06-04T06:55:09.343Z,34.1
2017-06-04T06:55:49.875Z,33.91
2017-06-04T06:56:30.415Z,33.81
2017-06-04T06:57:10.952Z,33.91
2017-06-04T06:57:51.482Z,33.62
2017-06-04T06:58:32.033Z,33.91
2017-06-04T06:59:12.564Z,33.91
2017-06-04T06:59:53.101Z,34
2017-06-04T07:00:33.651Z,33.72
2017-06-04T07:01:14.196Z,33.62
2017-06-04T07:01:54.730Z,33.72
2017-06-04T07:02:35.265Z,34
2017-06-04T07:03:15.806Z,33.62
2017-06-04T07:03:56.336Z,33.91
2017-06-04T07:04:36.889Z,34
2017-06-04T07:05:17.422Z,34.12
2017-06-04T07:05:57.971Z,34.39
2017-06-04T07:06:38.515Z,34.88
2017-06-04T07:07:19.056Z,34.96
2017-06-04T07:07:59.606Z,34.48
2017-06-04T07:08:40.138Z,34.31
2017-06-04T07:09:20.685Z,35.17
2017-06-04T07:10:01.232Z,36.02
2017-06-04T07:10:41.765Z,36.69
2017-06-04T07:11:22.279Z,39.37
2017-06-04T07:12:02.822Z,40.23
2017-06-04T07:12:43.359Z,41.96
2017-06-04T07:13:23.901Z,41.57
2017-06-04T07:14:04.431Z,40.9
2017-06-04T07:14:44.960Z,40.33
2017-06-04T07:15:25.496Z,40.52
2017-06-04T07:16:06.039Z,42.72
2017-06-04T07:16:46.575Z,42.05
2017-06-04T07:17:27.115Z,41.77
2017-06-04T07:18:07.657Z,42.91
2017-06-04T07:18:48.193Z,44.73
2017-06-04T07:19:28.732Z,44.35
2017-06-04T07:20:09.270Z,44.83
2017-06-04T07:20:49.807Z,45.59
2017-06-04T07:21:30.355Z,45.59
2017-06-04T07:22:10.885Z,45.89
2017-06-04T07:22:51.433Z,51.06
2017-06-04T07:23:31.977Z,49.62
2017-06-04T07:24:12.501Z,49.24
2017-06-04T07:24:53.037Z,49.05
2017-06-04T07:25:33.578Z,49.43
2017-06-04T07:26:14.118Z,48.28
2017-06-04T07:26:54.656Z,47.61
2017-06-04T07:27:35.201Z,48.85
2017-06-04T07:28:15.746Z,49.24
2017-06-04T07:28:56.286Z,51.06
2017-06-04T07:29:36.841Z,51.44
2017-06-04T07:30:17.387Z,51.54
2017-06-04T07:30:57.930Z,51.63
2017-06-04T07:31:38.476Z,50.96
2017-06-04T07:32:19.021Z,50.96
2017-06-04T07:32:59.559Z,52.01
2017-06-04T07:33:40.089Z,52.78
2017-06-04T07:34:20.633Z,52.69
2017-06-04T07:35:01.162Z,52.69
2017-06-04T07:35:41.686Z,54.99
2017-06-04T07:36:22.232Z,54.99
2017-06-04T07:37:02.771Z,54.22
2017-06-04T07:37:43.310Z,54.15
2017-06-04T07:38:23.851Z,56.35
2017-06-04T07:39:04.391Z,55.68
2017-06-04T07:39:44.935Z,55.97
2017-06-04T07:40:25.471Z,56.35
2017-06-04T07:41:06.063Z,57.89
2017-06-04T07:41:46.540Z,58.37
2017-06-04T07:42:27.086Z,58.17
2017-06-04T07:43:07.632Z,59.13
2017-06-04T07:43:48.175Z,59.52
2017-06-04T07:44:28.708Z,59.33
2017-06-04T07:45:09.247Z,59.8
2017-06-04T07:45:49.795Z,61.82
2017-06-04T07:46:30.324Z,61.53
2017-06-04T07:47:10.864Z,67.18
2017-06-04T07:47:51.412Z,66.71
2017-06-04T07:48:31.967Z,66.99
2017-06-04T07:49:12.490Z,68.52
2017-06-04T07:49:53.050Z,69.39
2017-06-04T07:50:33.603Z,69.39
2017-06-04T07:51:14.153Z,68.72
2017-06-04T07:51:54.692Z,68.14
2017-06-04T07:52:35.230Z,67.76
2017-06-04T07:53:15.759Z,67.47
2017-06-04T07:53:56.305Z,67.85
2017-06-04T07:54:36.845Z,67.57
2017-06-04T07:55:17.404Z,68.52
2017-06-04T07:55:57.944Z,69.77
2017-06-04T07:56:38.473Z,70.15
2017-06-04T07:57:19.019Z,69.13
2017-06-04T07:57:59.574Z,69.2
2017-06-04T07:58:40.083Z,68.62
2017-06-04T07:59:20.613Z,68.62
2017-06-04T08:00:01.140Z,69.9
2017-06-04T08:00:41.674Z,68.81
2017-06-04T08:01:22.222Z,68.85
2017-06-04T08:02:02.772Z,69.13
2017-06-04T08:02:43.313Z,72.39
2017-06-04T08:03:23.850Z,74.02
2017-06-04T08:04:04.399Z,73.74
2017-06-04T08:04:44.929Z,75.75
2017-06-04T08:05:25.465Z,76.71
2017-06-04T08:06:06.001Z,77.09
2017-06-04T08:06:46.545Z,76.62
2017-06-04T08:07:27.073Z,76.23
2017-06-04T08:08:07.607Z,77.38
2017-06-04T08:08:48.140Z,77.86
2017-06-04T08:09:28.670Z,78.05
2017-06-04T08:10:09.211Z,78.44
2017-06-04T08:10:49.730Z,79.11
2017-06-04T08:11:30.271Z,79.68
2017-06-04T08:12:10.820Z,79.3
2017-06-04T08:12:51.364Z,78.15
2017-06-04T08:13:31.909Z,77.76
2017-06-04T08:14:12.456Z,78.15
2017-06-04T08:14:52.998Z,77.29
2017-06-04T08:15:33.524Z,77
2017-06-04T08:16:14.055Z,76.62
2017-06-04T08:16:54.593Z,79.11
2017-06-04T08:17:35.156Z,80.35
2017-06-04T08:18:15.699Z,80.26
2017-06-04T08:18:56.241Z,80.26
2017-06-04T08:19:36.787Z,81.31
2017-06-04T08:20:17.352Z,81.56
2017-06-04T08:20:57.878Z,80.7
2017-06-04T08:21:38.425Z,80.83
2017-06-04T08:22:18.992Z,80.79
2017-06-04T08:22:59.534Z,80.22
2017-06-04T08:23:40.078Z,80.03
2017-06-04T08:24:20.605Z,79.16
2017-06-04T08:25:01.148Z,78.97
2017-06-04T08:25:41.684Z,77.92
2017-06-04T08:26:22.213Z,77.92
2017-06-04T08:27:02.742Z,80.03
2017-06-04T08:27:43.274Z,78.97
2017-06-04T08:28:23.820Z,82.65
2017-06-04T08:29:04.357Z,84.95
2017-06-04T08:29:44.895Z,88.65
2017-06-04T08:30:25.438Z,93.3
2017-06-04T08:31:05.969Z,95.03
2017-06-04T08:31:46.519Z,96.99
2017-06-04T08:32:27.033Z,98.14
2017-06-04T08:33:07.575Z,99.97
2017-06-04T08:33:48.100Z,99.99
2017-06-04T08:34:28.641Z,99.99
2017-06-04T08:35:09.183Z,99.99
2017-06-04T08:35:49.722Z,99.99
2017-06-04T08:36:30.262Z,99.99
2017-06-04T08:37:10.806Z,99.99
2017-06-04T08:37:51.339Z,99.99
2017-06-04T08:38:31.893Z,99.99
2017-06-04T08:39:12.434Z,99.99
2017-06-04T08:39:52.983Z,99.99
2017-06-04T08:40:33.532Z,99.99
2017-06-04T08:41:14.079Z,99.99
2017-06-04T08:41:54.621Z,99.99
2017-06-04T08:42:35.150Z,99.99
2017-06-04T08:43:15.683Z,99.99
2017-06-04T08:43:56.211Z,99.99
2017-06-04T08:44:36.762Z,99.99
2017-06-04T08:45:17.298Z,99.99
2017-06-04T08:45:57.839Z,99.99
2017-06-04T08:46:38.381Z,99.99
2017-06-04T08:47:18.905Z,99.99
2017-06-04T08:47:59.454Z,99.99
2017-06-04T08:48:39.990Z,99.99
2017-06-04T08:49:20.540Z,99.99
2017-06-04T08:50:01.086Z,99.99
2017-06-04T08:50:41.620Z,99.99
2017-06-04T08:51:22.166Z,99.99
2017-06-04T08:52:02.717Z,99.99
2017-06-04T08:52:43.258Z,99.99
2017-06-04T08:53:23.803Z,99.99
2017-06-04T08:54:04.338Z,99.99
2017-06-04T08:54:44.891Z,99.99
2017-06-04T08:55:25.438Z,99.99
2017-06-04T08:56:05.983Z,99.99
2017-06-04T08:56:46.548Z,99.99
2017-06-04T08:57:27.100Z,99.99
2017-06-04T08:58:07.641Z,99.99
2017-06-04T08:58:48.201Z,99.99
2017-06-04T08:59:28.726Z,99.99
2017-06-04T09:00:09.263Z,99.99
2017-06-04T09:00:50.573Z,99.99
2017-06-04T09:01:31.125Z,99.99
2017-06-04T09:02:11.663Z,99.99
2017-06-04T09:02:52.217Z,99.99
2017-06-04T09:03:32.750Z,99.99
2017-06-04T09:04:13.287Z,99.99
2017-06-04T09:04:53.823Z,99.99
2017-06-04T09:05:34.439Z,99.99
2017-06-04T09:06:14.990Z,99.99
2017-06-04T09:06:55.531Z,99.99
2017-06-04T09:07:36.072Z,99.99
2017-06-04T09:08:16.594Z,99.99
2017-06-04T09:08:57.136Z,99.99
2017-06-04T09:09:37.677Z,99.99
2017-06-04T09:10:18.207Z,99.99
2017-06-04T09:10:58.745Z,99.99
2017-06-04T09:11:39.286Z,99.99
2017-06-04T09:12:19.820Z,99.99
2017-06-04T09:13:00.367Z,99.99
2017-06-04T09:13:40.956Z,99.99
2017-06-04T09:14:21.489Z,99.99
2017-06-04T09:15:02.012Z,99.99
2017-06-04T09:15:42.555Z,99.99
2017-06-04T09:16:23.087Z,99.99
2017-06-04T09:17:03.624Z,99.99
2017-06-04T09:17:44.171Z,99.99
2017-06-04T09:18:24.736Z,99.99
2017-06-04T09:19:05.290Z,99.99
2017-06-04T09:19:45.826Z,99.99
2017-06-04T09:20:26.366Z,99.99
2017-06-04T09:21:06.918Z,99.99
2017-06-04T09:21:47.458Z,99.99
2017-06-04T09:22:28.000Z,99.99
2017-06-04T09:23:08.521Z,99.99
2017-06-04T09:23:49.062Z,99.99
2017-06-04T09:24:29.594Z,99.99
2017-06-04T09:25:10.136Z,99.99
2017-06-04T09:25:50.673Z,99.99
2017-06-04T09:26:31.221Z,99.99
2017-06-04T09:27:11.759Z,99.99
2017-06-04T09:27:52.301Z,99.99
2017-06-04T09:28:32.836Z,99.99
2017-06-04T09:29:13.376Z,99.99
2017-06-04T09:29:53.919Z,99.99
2017-06-04T09:30:34.453Z,99.99
2017-06-04T09:31:15.005Z,99.99
2017-06-04T09:31:55.553Z,99.99
2017-06-04T09:32:36.092Z,99.99
2017-06-04T09:33:16.627Z,99.99
2017-06-04T09:33:57.171Z,99.99
2017-06-04T09:34:37.711Z,99.99
2017-06-04T09:35:18.242Z,99.99
2017-06-04T09:35:58.776Z,99.99
2017-06-04T09:36:39.307Z,99.99
2017-06-04T09:37:19.843Z,99.99
2017-06-04T09:38:00.378Z,99.99
2017-06-04T09:38:40.923Z,99.99
2017-06-04T09:39:21.450Z,99.99
2017-06-04T09:40:01.996Z,99.99
2017-06-04T09:40:42.546Z,99.99
2017-06-04T09:41:23.087Z,99.99
2017-06-04T09:42:03.632Z,99.99
2017-06-04T09:42:44.174Z,99.99
2017-06-04T09:43:24.711Z,99.99
2017-06-04T09:44:05.250Z,99.99
2017-06-04T09:44:45.798Z,99.99
2017-06-04T09:45:26.346Z,99.99
2017-06-04T09:46:06.884Z,99.99
2017-06-04T09:46:47.418Z,99.99
2017-06-04T09:47:27.937Z,99.99
2017-06-04T09:48:08.473Z,99.99
2017-06-04T09:48:49.019Z,99.99
2017-06-04T09:49:29.548Z,99.99
2017-06-04T09:50:10.094Z,99.99
2017-06-04T09:50:50.632Z,99.99
2017-06-04T09:51:31.178Z,99.99
2017-06-04T09:52:11.712Z,99.99
2017-06-04T09:52:52.254Z,99.99
2017-06-04T09:53:32.778Z,99.99
2017-06-04T09:54:13.340Z,99.99
2017-06-04T09:54:53.873Z,99.99
2017-06-04T09:55:34.420Z,99.99
2017-06-04T09:56:14.960Z,99.99
2017-06-04T09:56:55.504Z,99.99
2017-06-04T09:57:36.052Z,99.99
2017-06-04T09:58:16.599Z,99.99
2017-06-04T09:58:57.145Z,99.99
2017-06-04T09:59:37.691Z,99.99
2017-06-04T10:00:18.232Z,99.99
2017-06-04T10:00:58.772Z,99.99
2017-06-04T10:01:39.306Z,99.99
2017-06-04T10:02:19.836Z,99.99
2017-06-04T10:03:00.398Z,99.99
2017-06-04T10:03:40.963Z,99.99
2017-06-04T10:04:21.515Z,99.99
2017-06-04T10:05:02.054Z,99.99
2017-06-04T10:05:42.585Z,99.99
2017-06-04T10:06:23.134Z,99.65
2017-06-04T10:07:03.685Z,98.73
2017-06-04T10:07:44.233Z,98.58
2017-06-04T10:08:24.778Z,99.02
2017-06-04T10:09:05.320Z,99.35
2017-06-04T10:09:45.868Z,99.4
2017-06-04T10:10:26.422Z,96.8
2017-06-04T10:11:06.962Z,98.39
2017-06-04T10:11:47.515Z,99.99
2017-06-04T10:12:28.048Z,99.99
2017-06-04T10:13:08.587Z,99.99
2017-06-04T10:13:49.143Z,99.99
2017-06-04T10:14:29.689Z,99.02
2017-06-04T10:15:10.243Z,97.57
2017-06-04T10:15:50.800Z,98.44
2017-06-04T10:16:31.346Z,96.7
2017-06-04T10:17:11.899Z,94.87
2017-06-04T10:17:52.452Z,95.01
2017-06-04T10:18:32.998Z,95.98
2017-06-04T10:19:13.546Z,96.08
2017-06-04T10:19:54.093Z,95.98
2017-06-04T10:20:34.623Z,96.56
2017-06-04T10:21:15.156Z,97.38
2017-06-04T10:21:55.711Z,96.7
2017-06-04T10:22:36.263Z,97.67
2017-06-04T10:23:16.804Z,94.87
2017-06-04T10:23:57.357Z,90.77
2017-06-04T10:24:37.909Z,90.58
2017-06-04T10:25:18.456Z,91.44
2017-06-04T10:25:59.010Z,91.64
2017-06-04T10:26:39.562Z,91.83
2017-06-04T10:27:20.121Z,92.5
2017-06-04T10:28:00.658Z,89.03
2017-06-04T10:28:41.194Z,90.58
2017-06-04T10:29:21.765Z,91.93
2017-06-04T10:30:02.306Z,91.01
2017-06-04T10:30:42.827Z,90.81
2017-06-04T10:31:23.380Z,89.56
2017-06-04T10:32:03.932Z,87.73
2017-06-04T10:32:44.479Z,86.57
2017-06-04T10:33:25.013Z,87.15
2017-06-04T10:34:05.545Z,85.99
2017-06-04T10:34:46.092Z,83
2017-06-04T10:35:26.643Z,80.54
2017-06-04T10:36:07.185Z,77.23
2017-06-04T10:36:47.719Z,75.93
2017-06-04T10:37:28.271Z,77.06
2017-06-04T10:38:08.810Z,79.46
2017-06-04T10:38:49.357Z,81.63
2017-06-04T10:39:29.897Z,83.37
2017-06-04T10:40:10.451Z,84.97
2017-06-04T10:40:50.993Z,86.79
2017-06-04T10:41:31.538Z,88.33
2017-06-04T10:42:12.089Z,90.06
2017-06-04T10:42:52.633Z,89.72
2017-06-04T10:43:33.170Z,87.21
2017-06-04T10:44:13.707Z,84.65
2017-06-04T10:44:54.252Z,79.39
2017-06-04T10:45:34.785Z,77.98
2017-06-04T10:46:15.335Z,76.95
2017-06-04T10:46:55.882Z,74.23
2017-06-04T10:47:36.423Z,70.4
2017-06-04T10:48:16.965Z,68.75
2017-06-04T10:48:57.513Z,67.53
2017-06-04T10:49:38.061Z,66.98
2017-06-04T10:50:18.612Z,67.18
2017-06-04T10:50:59.158Z,68.63
2017-06-04T10:51:39.716Z,69.21
2017-06-04T10:52:20.263Z,69.5
2017-06-04T10:53:00.816Z,70.62
2017-06-04T10:53:41.366Z,71.66
2017-06-04T10:54:21.911Z,72.49
2017-06-04T10:55:02.461Z,71.52
2017-06-04T10:55:43.021Z,68.33
2017-06-04T10:56:23.575Z,68.17
2017-06-04T10:57:04.129Z,67.49
2017-06-04T10:57:44.667Z,66.43
2017-06-04T10:58:25.209Z,65.82
2017-06-04T10:59:05.760Z,66.01
2017-06-04T10:59:46.310Z,66.3
2017-06-04T11:00:26.841Z,66.11
2017-06-04T11:01:07.391Z,65.75
2017-06-04T11:01:47.921Z,64.53
2017-06-04T11:02:28.458Z,64.24
2017-06-04T11:03:08.994Z,64.07
2017-06-04T11:03:49.533Z,61.69
2017-06-04T11:04:30.082Z,60.11
2017-06-04T11:05:10.643Z,59.01
2017-06-04T11:05:51.259Z,60.14
2017-06-04T11:06:31.810Z,61.37
2017-06-04T11:07:12.363Z,62.12
2017-06-04T11:07:52.912Z,62.89
2017-06-04T11:08:33.475Z,62.7
2017-06-04T11:09:14.022Z,63.08
2017-06-04T11:09:54.573Z,63.43
2017-06-04T11:10:35.115Z,63.56
2017-06-04T11:11:15.645Z,62.95
2017-06-04T11:11:56.217Z,62.95
2017-06-04T11:12:36.757Z,63.92
2017-06-04T11:13:17.292Z,64.11
2017-06-04T11:13:57.839Z,62.54
2017-06-04T11:14:38.383Z,63.12
2017-06-04T11:15:18.926Z,63.5
2017-06-04T11:15:59.465Z,64.24
2017-06-04T11:16:40.017Z,65.53
2017-06-04T11:17:20.573Z,65.53
2017-06-04T11:18:01.103Z,63.98
2017-06-04T11:18:41.649Z,64.63
2017-06-04T11:19:22.192Z,65.78
2017-06-04T11:20:02.740Z,68.39
2017-06-04T11:20:43.291Z,69.32
2017-06-04T11:21:23.840Z,67.52
2017-06-04T11:22:04.405Z,67.91
2017-06-04T11:22:44.953Z,67.04
2017-06-04T11:23:25.493Z,66.75
2017-06-04T11:24:06.046Z,67.04
2017-06-04T11:24:46.600Z,67.07
2017-06-04T11:25:27.163Z,65.63
2017-06-04T11:26:07.712Z,64.72
2017-06-04T11:26:48.260Z,64.53
2017-06-04T11:27:28.805Z,65.37
2017-06-04T11:28:09.352Z,66.3
2017-06-04T11:28:49.891Z,66.59
2017-06-04T11:29:30.433Z,66.97
2017-06-04T11:30:10.985Z,67.55
2017-06-04T11:30:51.532Z,66.04
2017-06-04T11:31:32.086Z,65.47
2017-06-04T11:32:12.610Z,64.79
2017-06-04T11:32:53.152Z,64.89
2017-06-04T11:33:33.735Z,65.08
2017-06-04T11:34:14.284Z,63.73
2017-06-04T11:34:54.834Z,63.73
2017-06-04T11:35:35.412Z,64.11
2017-06-04T11:36:15.917Z,65.11
2017-06-04T11:36:56.441Z,65.5
2017-06-04T11:37:36.985Z,64.92
2017-06-04T11:38:17.526Z,64.53
2017-06-04T11:38:58.073Z,65.4
2017-06-04T11:39:38.622Z,64.15
2017-06-04T11:40:19.169Z,62.41
2017-06-04T11:40:59.722Z,61.64
2017-06-04T11:41:40.266Z,61.74
2017-06-04T11:42:20.808Z,62.05
2017-06-04T11:43:01.354Z,62.82
2017-06-04T11:43:41.905Z,62.15
2017-06-04T11:44:22.446Z,61.96
2017-06-04T11:45:02.995Z,61.86
2017-06-04T11:45:43.535Z,62.08
2017-06-04T11:46:24.074Z,62.76
2017-06-04T11:47:04.606Z,62.66
2017-06-04T11:47:45.157Z,61.51
2017-06-04T11:48:25.704Z,60.83
2017-06-04T11:49:06.238Z,61.41
2017-06-04T11:49:46.786Z,62.76
2017-06-04T11:50:27.333Z,63.24
2017-06-04T11:51:07.885Z,62.5
2017-06-04T11:51:48.437Z,62.12
2017-06-04T11:52:28.981Z,61.34
2017-06-04T11:53:09.534Z,60.76
2017-06-04T11:53:50.067Z,61.25
2017-06-04T11:54:30.621Z,61.34
2017-06-04T11:55:11.170Z,61.15
2017-06-04T11:55:51.766Z,61.83
2017-06-04T11:56:32.295Z,61.54
2017-06-04T11:57:12.836Z,60.25
2017-06-04T11:57:53.386Z,57.84
2017-06-04T11:58:33.931Z,56.96
2017-06-04T11:59:14.483Z,57.93
2017-06-04T11:59:55.025Z,57.26
2017-06-04T12:00:35.584Z,56.9
2017-06-04T12:01:16.135Z,57.29
2017-06-04T12:01:56.683Z,57.09
2017-06-04T12:02:37.226Z,56.9
2017-06-04T12:03:17.778Z,56.61
2017-06-04T12:03:58.329Z,56.22
2017-06-04T12:04:38.867Z,57.48
2017-06-04T12:05:19.421Z,57.77
2017-06-04T12:05:59.969Z,57.31
2017-06-04T12:06:40.518Z,57.31
2017-06-04T12:07:21.055Z,57.31
2017-06-04T12:08:01.601Z,57.21
2017-06-04T12:08:42.147Z,56.47
2017-06-04T12:09:22.686Z,54.51
2017-06-04T12:10:03.310Z,54.99
2017-06-04T12:10:43.845Z,53.16
2017-06-04T12:11:24.389Z,52.87
2017-06-04T12:12:04.935Z,53.71
2017-06-04T12:12:45.491Z,54
2017-06-04T12:13:26.036Z,55.23
2017-06-04T12:14:06.573Z,56.65
2017-06-04T12:14:47.118Z,58.1
2017-06-04T12:15:27.660Z,59.45
2017-06-04T12:16:08.199Z,58.77
2017-06-04T12:16:48.751Z,58.32
2017-06-04T12:17:29.283Z,58.8
2017-06-04T12:18:09.833Z,58.15
2017-06-04T12:18:50.374Z,56.9
2017-06-04T12:19:30.915Z,56.51
2017-06-04T12:20:11.469Z,55.87
2017-06-04T12:20:52.019Z,55.45
2017-06-04T12:21:32.560Z,55.65
2017-06-04T12:22:13.105Z,54.29
2017-06-04T12:22:53.654Z,54.84
2017-06-04T12:23:34.198Z,56
2017-06-04T12:24:14.754Z,56.29
2017-06-04T12:24:55.290Z,56.2
2017-06-04T12:25:35.818Z,55.9
2017-06-04T12:26:16.359Z,56
2017-06-04T12:26:56.901Z,55.93
2017-06-04T12:27:37.446Z,55.93
2017-06-04T12:28:17.995Z,56.63
2017-06-04T12:28:58.544Z,54.99
2017-06-04T12:29:39.082Z,55.09
2017-06-04T12:30:19.622Z,55.38
2017-06-04T12:31:00.164Z,53.93
2017-06-04T12:31:40.711Z,53.74
2017-06-04T12:32:21.262Z,53.81
2017-06-04T12:33:01.808Z,54.36
2017-06-04T12:33:42.356Z,55.59
2017-06-04T12:34:22.904Z,55.3
2017-06-04T12:35:03.445Z,55.4
2017-06-04T12:35:43.989Z,55.2
2017-06-04T12:36:24.529Z,54.17
2017-06-04T12:37:05.054Z,54.46
2017-06-04T12:37:45.597Z,54.94
2017-06-04T12:38:26.142Z,55.04
2017-06-04T12:39:06.683Z,54.75
2017-06-04T12:39:47.239Z,53.81
2017-06-04T12:40:27.782Z,54
2017-06-04T12:41:08.332Z,54.29
2017-06-04T12:41:48.881Z,54.29
2017-06-04T12:42:29.435Z,54.68
2017-06-04T12:43:09.987Z,54.39
2017-06-04T12:43:50.535Z,52.94
2017-06-04T12:44:31.077Z,53.42
2017-06-04T12:45:11.620Z,52.65
2017-06-04T12:45:52.167Z,52.65
2017-06-04T12:46:32.706Z,53.03
2017-06-04T12:47:13.251Z,53.81
2017-06-04T12:47:53.794Z,53.61
2017-06-04T12:48:34.323Z,53.23
2017-06-04T12:49:14.877Z,51.59
2017-06-04T12:49:55.431Z,52.91
2017-06-04T12:50:35.959Z,52.23
2017-06-04T12:51:16.506Z,51.56
2017-06-04T12:51:57.072Z,51.65
2017-06-04T12:52:37.615Z,50.59
2017-06-04T12:53:18.154Z,50.21
2017-06-04T12:53:58.695Z,50.79
2017-06-04T12:54:39.238Z,51.37
2017-06-04T12:55:19.765Z,51.53
2017-06-04T12:56:00.312Z,52.98
2017-06-04T12:56:40.857Z,52.89
2017-06-04T12:57:21.409Z,53.37
2017-06-04T12:58:01.958Z,53.95
2017-06-04T12:58:42.488Z,53.95
2017-06-04T12:59:23.040Z,53.85
2017-06-04T13:00:03.593Z,54.43
2017-06-04T13:00:44.137Z,55.13
2017-06-04T13:01:24.669Z,55.33
2017-06-04T13:02:05.219Z,54.68
2017-06-04T13:02:45.768Z,54.65
2017-06-04T13:03:26.314Z,54.58
2017-06-04T13:04:06.863Z,55.16
2017-06-04T13:04:47.416Z,54.1
2017-06-04T13:05:27.966Z,53.91
2017-06-04T13:06:08.513Z,53.52
2017-06-04T13:06:49.061Z,53.59
2017-06-04T13:07:29.602Z,53.59
2017-06-04T13:08:10.151Z,53.78
2017-06-04T13:08:50.702Z,54.55
2017-06-04T13:09:31.247Z,55.04
2017-06-04T13:10:11.793Z,55.42
2017-06-04T13:10:52.332Z,55.71
2017-06-04T13:11:32.874Z,54.53
2017-06-04T13:12:13.421Z,54.14
2017-06-04T13:12:53.971Z,53.63
2017-06-04T13:13:34.523Z,54.02
2017-06-04T13:14:15.073Z,54.79
2017-06-04T13:14:55.617Z,55.92
2017-06-04T13:15:36.147Z,56.88
2017-06-04T13:16:16.692Z,57.17
2017-06-04T13:16:57.228Z,56.98
2017-06-04T13:17:37.799Z,57.46
2017-06-04T13:18:18.317Z,57.56
2017-06-04T13:18:58.861Z,57.43
2017-06-04T13:19:39.443Z,57.92
2017-06-04T13:20:19.990Z,58.42
2017-06-04T13:21:00.537Z,58.23
2017-06-04T13:21:41.085Z,58.62
2017-06-04T13:22:21.634Z,59.1
2017-06-04T13:23:02.185Z,59.3
2017-06-04T13:23:42.748Z,60.16
2017-06-04T13:24:23.308Z,58.72
2017-06-04T13:25:03.854Z,57.27
2017-06-04T13:25:44.439Z,57.27
2017-06-04T13:26:24.972Z,57.75
2017-06-04T13:27:05.515Z,57.46
2017-06-04T13:27:46.056Z,57.65
2017-06-04T13:28:26.606Z,58.42
2017-06-04T13:29:07.147Z,59.1
2017-06-04T13:29:47.693Z,59.48
2017-06-04T13:30:28.247Z,59.9
2017-06-04T13:31:08.788Z,59.52
2017-06-04T13:31:49.324Z,59.1
2017-06-04T13:32:29.868Z,58.72
2017-06-04T13:33:10.406Z,59
2017-06-04T13:33:50.940Z,60.06
2017-06-04T13:34:31.479Z,59.97
2017-06-04T13:35:12.018Z,60.55
2017-06-04T13:35:52.568Z,60.45
2017-06-04T13:36:33.114Z,61.03
2017-06-04T13:37:13.660Z,60.64
2017-06-04T13:37:54.204Z,61.13
2017-06-04T13:38:34.753Z,60.64
2017-06-04T13:39:15.303Z,61.22
2017-06-04T13:39:55.842Z,61.29
2017-06-04T13:40:36.385Z,60.9
2017-06-04T13:41:16.935Z,61
2017-06-04T13:41:57.487Z,61
2017-06-04T13:42:38.037Z,60.23
2017-06-04T13:43:18.573Z,59.55
2017-06-04T13:43:59.115Z,60.23
2017-06-04T13:44:39.660Z,59.94
2017-06-04T13:45:20.209Z,60.9
2017-06-04T13:46:00.759Z,62.25
2017-06-04T13:46:41.301Z,61.96
2017-06-04T13:47:21.825Z,60.32
2017-06-04T13:48:02.408Z,60.9
2017-06-04T13:48:42.959Z,60.9
2017-06-04T13:49:23.498Z,61.29
2017-06-04T13:50:04.046Z,60.9
2017-06-04T13:50:44.585Z,59.84
2017-06-04T13:51:25.126Z,59.94
2017-06-04T13:52:05.667Z,61.1
2017-06-04T13:52:46.229Z,61.38
2017-06-04T13:53:26.753Z,61.68
2017-06-04T13:54:07.295Z,61.87
2017-06-04T13:54:47.831Z,62.06
2017-06-04T13:55:28.372Z,62.45
2017-06-04T13:56:08.904Z,63.02
2017-06-04T13:56:49.477Z,63.02
2017-06-04T13:57:29.999Z,62.45
2017-06-04T13:58:10.540Z,62.73
2017-06-04T13:58:51.084Z,62.15
2017-06-04T13:59:31.634Z,61.19
2017-06-04T14:00:12.181Z,60.42
2017-06-04T14:00:52.736Z,58.97
2017-06-04T14:01:33.292Z,59.07
2017-06-04T14:02:13.834Z,60.03
2017-06-04T14:02:54.385Z,60.23
2017-06-04T14:03:34.934Z,60.71
2017-06-04T14:04:15.477Z,60.9
2017-06-04T14:04:56.030Z,62.15
2017-06-04T14:05:36.544Z,61.38
2017-06-04T14:06:17.107Z,60.71
2017-06-04T14:06:57.651Z,61.19
2017-06-04T14:07:38.188Z,61
2017-06-04T14:08:18.733Z,61.58
2017-06-04T14:08:59.273Z,62.73
2017-06-04T14:09:39.803Z,63.21
2017-06-04T14:10:20.337Z,63.7
2017-06-04T14:11:00.891Z,65.24
2017-06-04T14:11:41.436Z,65.91
2017-06-04T14:12:21.987Z,67.71
2017-06-04T14:13:02.552Z,68.77
2017-06-04T14:13:43.093Z,70.41
2017-06-04T14:14:23.639Z,71.47
2017-06-04T14:15:04.181Z,72.63
2017-06-04T14:15:44.731Z,73.43
2017-06-04T14:16:25.271Z,74.4
2017-06-04T14:17:05.816Z,75.42
2017-06-04T14:17:46.384Z,75.93
2017-06-04T14:18:26.946Z,76.8
2017-06-04T14:19:07.490Z,78.06
2017-06-04T14:19:48.040Z,79.41
2017-06-04T14:20:28.593Z,80.27
2017-06-04T14:21:09.114Z,81.62
2017-06-04T14:21:52.369Z,82.87
2017-06-04T14:22:33.153Z,82.59
2017-06-04T14:23:13.710Z,83.84
2017-06-04T14:23:54.244Z,84.9
2017-06-04T14:24:34.799Z,86.35
2017-06-04T14:25:15.324Z,84.18
2017-06-04T14:25:55.863Z,84.95
2017-06-04T14:26:36.393Z,86.98
2017-06-04T14:27:16.946Z,88.9
2017-06-04T14:27:57.555Z,90.25
2017-06-04T14:28:38.100Z,91.46
2017-06-04T14:29:18.621Z,90.97
2017-06-04T14:29:59.146Z,91.65
2017-06-04T14:30:39.809Z,91.27
2017-06-04T14:31:20.453Z,92.42
2017-06-04T14:32:00.979Z,91.8
2017-06-04T14:32:41.853Z,92.85
2017-06-04T14:33:22.454Z,94.2
2017-06-04T14:34:03.035Z,94.68
2017-06-04T14:34:43.594Z,95.26
2017-06-04T14:35:24.128Z,97.19
2017-06-04T14:36:04.669Z,98.58
2017-06-04T14:36:45.270Z,99.26
2017-06-04T14:37:25.824Z,99.83
2017-06-04T14:38:06.600Z,99.99
2017-06-04T14:38:47.055Z,99.99
2017-06-04T14:39:27.702Z,99.99
2017-06-04T14:40:08.298Z,99.99
2017-06-04T14:40:48.858Z,99.99
2017-06-04T14:41:29.486Z,99.99
2017-06-04T14:42:10.048Z,99.99
2017-06-04T14:42:50.686Z,99.99
2017-06-04T14:43:31.240Z,99.99
2017-06-04T14:44:11.999Z,99.99
2017-06-04T14:44:52.543Z,99.99
2017-06-04T14:45:33.091Z,99.99
2017-06-04T14:46:13.654Z,99.99
2017-06-04T14:46:54.237Z,99.99
2017-06-04T14:47:34.861Z,99.99
2017-06-04T14:48:15.410Z,99.99
2017-06-04T14:48:55.995Z,99.99
2017-06-04T14:49:36.610Z,99.99
2017-06-04T14:50:17.234Z,99.99
2017-06-04T14:50:57.870Z,99.99
2017-06-04T14:51:38.408Z,99.99
2017-06-04T14:52:18.941Z,99.99
2017-06-04T14:52:59.519Z,99.99
2017-06-04T14:53:40.107Z,99.99
2017-06-04T14:54:20.664Z,99.99
2017-06-04T14:55:01.241Z,99.99
2017-06-04T14:55:41.796Z,99.99
2017-06-04T14:56:22.393Z,99.99
2017-06-04T14:57:02.924Z,99.99
2017-06-04T14:57:43.675Z,99.99
2017-06-04T14:58:24.321Z,99.99
2017-06-04T14:59:04.853Z,99.99
2017-06-04T14:59:45.449Z,99.99
2017-06-04T15:00:26.132Z,99.99
2017-06-04T15:01:06.610Z,99.99
2017-06-04T15:01:47.154Z,99.99
2017-06-04T15:02:27.846Z,99.99
